sensor_id;sensor_type;location;lat;lon;timestamp;P1;durP1;ratioP1;P2;durP2;ratioP2
11135;SDS011;5622;50.840;4.948;2023-04-16T00:01:59;9.77;;;3.37;;
11135;SDS011;5622;50.840;4.948;2023-04-16T00:04:26;5.47;;;3.63;;
11135;SDS011;5622;50.840;4.948;2023-04-16T00:06:53;7.97;;;3.40;;
11135;SDS011;5622;50.840;4.948;2023-04-16T00:09:20;10.90;;;3.60;;
11135;SDS011;5622;50.840;4.948;2023-04-16T00:11:49;8.63;;;3.80;;
11135;SDS011;5622;50.840;4.948;2023-04-16T00:14:16;6.03;;;3.53;;
11135;SDS011;5622;50.840;4.948;2023-04-16T00:16:43;10.57;;;4.13;;
11135;SDS011;5622;50.840;4.948;2023-04-16T00:19:11;6.00;;;3.77;;
11135;SDS011;5622;50.840;4.948;2023-04-16T00:21:38;6.57;;;3.17;;
11135;SDS011;5622;50.840;4.948;2023-04-16T00:24:05;6.70;;;3.93;;
11135;SDS011;5622;50.840;4.948;2023-04-16T00:26:32;8.70;;;3.53;;
11135;SDS011;5622;50.840;4.948;2023-04-16T00:29:01;7.10;;;3.70;;
11135;SDS011;5622;50.840;4.948;2023-04-16T00:31:28;8.80;;;4.00;;
11135;SDS011;5622;50.840;4.948;2023-04-16T00:33:56;6.60;;;3.57;;
11135;SDS011;5622;50.840;4.948;2023-04-16T00:36:23;9.10;;;3.53;;
11135;SDS011;5622;50.840;4.948;2023-04-16T00:38:52;7.90;;;4.10;;
11135;SDS011;5622;50.840;4.948;2023-04-16T00:41:20;6.47;;;3.83;;
11135;SDS011;5622;50.840;4.948;2023-04-16T00:43:47;6.43;;;3.60;;
11135;SDS011;5622;50.840;4.948;2023-04-16T00:46:17;8.20;;;3.60;;
11135;SDS011;5622;50.840;4.948;2023-04-16T00:48:45;11.97;;;4.20;;
11135;SDS011;5622;50.840;4.948;2023-04-16T00:51:12;8.57;;;4.87;;
11135;SDS011;5622;50.840;4.948;2023-04-16T00:53:40;7.93;;;4.00;;
11135;SDS011;5622;50.840;4.948;2023-04-16T00:56:08;4.50;;;3.80;;
11135;SDS011;5622;50.840;4.948;2023-04-16T00:58:37;10.43;;;4.23;;
11135;SDS011;5622;50.840;4.948;2023-04-16T01:01:04;10.87;;;4.40;;
11135;SDS011;5622;50.840;4.948;2023-04-16T01:03:36;7.77;;;3.80;;
11135;SDS011;5622;50.840;4.948;2023-04-16T01:06:04;8.97;;;4.00;;
11135;SDS011;5622;50.840;4.948;2023-04-16T01:08:32;7.57;;;4.07;;
11135;SDS011;5622;50.840;4.948;2023-04-16T01:10:59;6.77;;;3.80;;
11135;SDS011;5622;50.840;4.948;2023-04-16T01:13:27;7.37;;;3.90;;
11135;SDS011;5622;50.840;4.948;2023-04-16T01:15:54;11.07;;;3.90;;
11135;SDS011;5622;50.840;4.948;2023-04-16T01:18:22;6.27;;;3.50;;
11135;SDS011;5622;50.840;4.948;2023-04-16T01:20:50;7.40;;;3.77;;
11135;SDS011;5622;50.840;4.948;2023-04-16T01:23:18;9.37;;;4.20;;
11135;SDS011;5622;50.840;4.948;2023-04-16T01:25:45;7.87;;;3.87;;
11135;SDS011;5622;50.840;4.948;2023-04-16T01:28:12;9.93;;;4.07;;
11135;SDS011;5622;50.840;4.948;2023-04-16T01:30:39;7.73;;;3.80;;
11135;SDS011;5622;50.840;4.948;2023-04-16T01:33:08;6.23;;;3.40;;
11135;SDS011;5622;50.840;4.948;2023-04-16T01:35:35;6.40;;;3.33;;
11135;SDS011;5622;50.840;4.948;2023-04-16T01:38:04;6.57;;;3.37;;
11135;SDS011;5622;50.840;4.948;2023-04-16T01:40:32;10.50;;;3.77;;
11135;SDS011;5622;50.840;4.948;2023-04-16T01:42:59;5.93;;;3.10;;
11135;SDS011;5622;50.840;4.948;2023-04-16T01:45:26;4.63;;;2.83;;
11135;SDS011;5622;50.840;4.948;2023-04-16T01:47:53;3.63;;;2.87;;
11135;SDS011;5622;50.840;4.948;2023-04-16T01:50:21;10.07;;;3.00;;
11135;SDS011;5622;50.840;4.948;2023-04-16T01:52:48;9.97;;;3.20;;
11135;SDS011;5622;50.840;4.948;2023-04-16T01:55:17;11.53;;;3.70;;
11135;SDS011;5622;50.840;4.948;2023-04-16T01:57:44;7.60;;;3.10;;
11135;SDS011;5622;50.840;4.948;2023-04-16T02:00:11;7.60;;;3.03;;
11135;SDS011;5622;50.840;4.948;2023-04-16T02:02:38;7.17;;;2.83;;
11135;SDS011;5622;50.840;4.948;2023-04-16T02:05:06;8.00;;;2.80;;
11135;SDS011;5622;50.840;4.948;2023-04-16T02:07:33;6.10;;;2.50;;
11135;SDS011;5622;50.840;4.948;2023-04-16T02:10:00;10.73;;;3.27;;
11135;SDS011;5622;50.840;4.948;2023-04-16T02:12:30;4.90;;;2.70;;
11135;SDS011;5622;50.840;4.948;2023-04-16T02:14:57;10.00;;;3.37;;
11135;SDS011;5622;50.840;4.948;2023-04-16T02:17:25;10.57;;;3.73;;
11135;SDS011;5622;50.840;4.948;2023-04-16T02:19:52;5.33;;;3.33;;
11135;SDS011;5622;50.840;4.948;2023-04-16T02:22:19;8.10;;;3.70;;
11135;SDS011;5622;50.840;4.948;2023-04-16T02:24:46;8.17;;;3.90;;
11135;SDS011;5622;50.840;4.948;2023-04-16T02:27:14;6.63;;;3.77;;
11135;SDS011;5622;50.840;4.948;2023-04-16T02:29:43;11.97;;;4.60;;
11135;SDS011;5622;50.840;4.948;2023-04-16T02:32:10;7.90;;;4.27;;
11135;SDS011;5622;50.840;4.948;2023-04-16T02:34:37;8.10;;;4.30;;
11135;SDS011;5622;50.840;4.948;2023-04-16T02:37:04;12.70;;;4.53;;
11135;SDS011;5622;50.840;4.948;2023-04-16T02:39:32;7.90;;;5.40;;
11135;SDS011;5622;50.840;4.948;2023-04-16T02:41:59;12.47;;;5.00;;
11135;SDS011;5622;50.840;4.948;2023-04-16T02:44:26;9.07;;;4.63;;
11135;SDS011;5622;50.840;4.948;2023-04-16T02:46:55;7.27;;;4.83;;
11135;SDS011;5622;50.840;4.948;2023-04-16T02:49:22;7.63;;;5.20;;
11135;SDS011;5622;50.840;4.948;2023-04-16T02:51:49;8.20;;;5.10;;
11135;SDS011;5622;50.840;4.948;2023-04-16T02:54:16;12.80;;;5.90;;
11135;SDS011;5622;50.840;4.948;2023-04-16T02:56:43;6.97;;;5.30;;
11135;SDS011;5622;50.840;4.948;2023-04-16T02:59:10;7.83;;;5.50;;
11135;SDS011;5622;50.840;4.948;2023-04-16T03:01:37;9.60;;;6.20;;
11135;SDS011;5622;50.840;4.948;2023-04-16T03:04:06;9.27;;;6.30;;
11135;SDS011;5622;50.840;4.948;2023-04-16T03:06:33;14.50;;;5.80;;
11135;SDS011;5622;50.840;4.948;2023-04-16T03:09:00;9.03;;;5.87;;
11135;SDS011;5622;50.840;4.948;2023-04-16T03:11:27;10.90;;;6.40;;
11135;SDS011;5622;50.840;4.948;2023-04-16T03:13:54;12.17;;;6.20;;
11135;SDS011;5622;50.840;4.948;2023-04-16T03:16:22;11.23;;;7.17;;
11135;SDS011;5622;50.840;4.948;2023-04-16T03:18:49;10.83;;;6.67;;
11135;SDS011;5622;50.840;4.948;2023-04-16T03:21:17;17.60;;;11.67;;
11135;SDS011;5622;50.840;4.948;2023-04-16T03:23:44;20.63;;;11.40;;
11135;SDS011;5622;50.840;4.948;2023-04-16T03:26:11;11.83;;;7.90;;
11135;SDS011;5622;50.840;4.948;2023-04-16T03:28:38;7.60;;;6.90;;
11135;SDS011;5622;50.840;4.948;2023-04-16T03:31:06;11.57;;;7.90;;
11135;SDS011;5622;50.840;4.948;2023-04-16T03:33:33;13.53;;;8.07;;
11135;SDS011;5622;50.840;4.948;2023-04-16T03:36:00;9.60;;;7.20;;
11135;SDS011;5622;50.840;4.948;2023-04-16T03:38:29;9.23;;;6.97;;
11135;SDS011;5622;50.840;4.948;2023-04-16T03:40:56;9.60;;;6.10;;
11135;SDS011;5622;50.840;4.948;2023-04-16T03:43:23;7.37;;;6.40;;
11135;SDS011;5622;50.840;4.948;2023-04-16T03:45:50;10.23;;;6.43;;
11135;SDS011;5622;50.840;4.948;2023-04-16T03:48:17;10.27;;;6.33;;
11135;SDS011;5622;50.840;4.948;2023-04-16T03:50:44;9.87;;;7.07;;
11135;SDS011;5622;50.840;4.948;2023-04-16T03:53:12;8.33;;;5.83;;
11135;SDS011;5622;50.840;4.948;2023-04-16T03:55:41;8.07;;;5.87;;
11135;SDS011;5622;50.840;4.948;2023-04-16T03:58:08;12.43;;;5.80;;
11135;SDS011;5622;50.840;4.948;2023-04-16T04:00:35;10.97;;;6.20;;
11135;SDS011;5622;50.840;4.948;2023-04-16T04:03:03;12.73;;;6.83;;
11135;SDS011;5622;50.840;4.948;2023-04-16T04:05:30;12.73;;;5.97;;
11135;SDS011;5622;50.840;4.948;2023-04-16T04:07:57;12.03;;;6.60;;
11135;SDS011;5622;50.840;4.948;2023-04-16T04:10:24;9.80;;;6.17;;
11135;SDS011;5622;50.840;4.948;2023-04-16T04:12:52;9.80;;;5.60;;
11135;SDS011;5622;50.840;4.948;2023-04-16T04:15:19;10.90;;;5.97;;
11135;SDS011;5622;50.840;4.948;2023-04-16T04:17:46;13.10;;;6.33;;
11135;SDS011;5622;50.840;4.948;2023-04-16T04:20:13;7.43;;;5.67;;
11135;SDS011;5622;50.840;4.948;2023-04-16T04:22:41;9.50;;;6.50;;
11135;SDS011;5622;50.840;4.948;2023-04-16T04:25:08;7.87;;;5.83;;
11135;SDS011;5622;50.840;4.948;2023-04-16T04:27:35;6.23;;;5.40;;
11135;SDS011;5622;50.840;4.948;2023-04-16T04:30:05;8.43;;;6.13;;
11135;SDS011;5622;50.840;4.948;2023-04-16T04:32:32;6.37;;;5.50;;
11135;SDS011;5622;50.840;4.948;2023-04-16T04:35:00;7.47;;;5.80;;
11135;SDS011;5622;50.840;4.948;2023-04-16T04:37:28;7.97;;;6.50;;
11135;SDS011;5622;50.840;4.948;2023-04-16T04:39:55;7.53;;;6.00;;
11135;SDS011;5622;50.840;4.948;2023-04-16T04:42:22;7.40;;;6.20;;
11135;SDS011;5622;50.840;4.948;2023-04-16T04:44:50;11.67;;;6.87;;
11135;SDS011;5622;50.840;4.948;2023-04-16T04:47:19;8.67;;;6.63;;
11135;SDS011;5622;50.840;4.948;2023-04-16T04:49:46;9.73;;;6.60;;
11135;SDS011;5622;50.840;4.948;2023-04-16T04:52:13;7.93;;;6.87;;
11135;SDS011;5622;50.840;4.948;2023-04-16T04:54:40;8.67;;;6.97;;
11135;SDS011;5622;50.840;4.948;2023-04-16T04:57:07;10.70;;;7.77;;
11135;SDS011;5622;50.840;4.948;2023-04-16T04:59:34;8.50;;;7.40;;
11135;SDS011;5622;50.840;4.948;2023-04-16T05:02:01;11.37;;;7.83;;
11135;SDS011;5622;50.840;4.948;2023-04-16T05:04:30;12.00;;;8.07;;
11135;SDS011;5622;50.840;4.948;2023-04-16T05:06:57;11.23;;;7.77;;
11135;SDS011;5622;50.840;4.948;2023-04-16T05:09:24;11.40;;;8.17;;
11135;SDS011;5622;50.840;4.948;2023-04-16T05:11:51;13.37;;;8.47;;
11135;SDS011;5622;50.840;4.948;2023-04-16T05:14:18;10.37;;;7.83;;
11135;SDS011;5622;50.840;4.948;2023-04-16T05:16:45;10.77;;;8.43;;
11135;SDS011;5622;50.840;4.948;2023-04-16T05:19:12;12.27;;;7.70;;
11135;SDS011;5622;50.840;4.948;2023-04-16T05:21:41;9.67;;;7.70;;
11135;SDS011;5622;50.840;4.948;2023-04-16T05:24:08;12.33;;;8.57;;
11135;SDS011;5622;50.840;4.948;2023-04-16T05:26:35;12.70;;;8.70;;
11135;SDS011;5622;50.840;4.948;2023-04-16T05:29:02;11.30;;;8.13;;
11135;SDS011;5622;50.840;4.948;2023-04-16T05:31:29;11.23;;;8.53;;
11135;SDS011;5622;50.840;4.948;2023-04-16T05:33:57;12.97;;;8.70;;
11135;SDS011;5622;50.840;4.948;2023-04-16T05:36:24;12.70;;;9.70;;
11135;SDS011;5622;50.840;4.948;2023-04-16T05:38:52;11.70;;;9.07;;
11135;SDS011;5622;50.840;4.948;2023-04-16T05:41:19;14.43;;;9.67;;
11135;SDS011;5622;50.840;4.948;2023-04-16T05:43:46;13.60;;;9.90;;
11135;SDS011;5622;50.840;4.948;2023-04-16T05:46:14;13.17;;;9.10;;
11135;SDS011;5622;50.840;4.948;2023-04-16T05:48:41;13.50;;;9.40;;
11135;SDS011;5622;50.840;4.948;2023-04-16T05:51:08;15.43;;;9.23;;
11135;SDS011;5622;50.840;4.948;2023-04-16T05:53:35;11.47;;;8.83;;
11135;SDS011;5622;50.840;4.948;2023-04-16T05:56:04;11.37;;;8.07;;
11135;SDS011;5622;50.840;4.948;2023-04-16T05:58:32;27.67;;;16.47;;
11135;SDS011;5622;50.840;4.948;2023-04-16T06:00:59;13.87;;;10.07;;
11135;SDS011;5622;50.840;4.948;2023-04-16T06:03:27;10.57;;;9.03;;
11135;SDS011;5622;50.840;4.948;2023-04-16T06:05:54;13.20;;;8.43;;
11135;SDS011;5622;50.840;4.948;2023-04-16T06:08:21;13.30;;;8.93;;
11135;SDS011;5622;50.840;4.948;2023-04-16T06:10:48;10.67;;;8.53;;
11135;SDS011;5622;50.840;4.948;2023-04-16T06:13:17;11.80;;;8.83;;
11135;SDS011;5622;50.840;4.948;2023-04-16T06:15:45;12.77;;;9.33;;
11135;SDS011;5622;50.840;4.948;2023-04-16T06:18:12;10.17;;;8.07;;
11135;SDS011;5622;50.840;4.948;2023-04-16T06:20:39;10.53;;;7.77;;
11135;SDS011;5622;50.840;4.948;2023-04-16T06:23:06;11.07;;;8.20;;
11135;SDS011;5622;50.840;4.948;2023-04-16T06:25:33;10.97;;;8.17;;
11135;SDS011;5622;50.840;4.948;2023-04-16T06:28:00;12.07;;;8.73;;
11135;SDS011;5622;50.840;4.948;2023-04-16T06:30:28;10.13;;;8.13;;
11135;SDS011;5622;50.840;4.948;2023-04-16T06:32:55;9.37;;;8.03;;
11135;SDS011;5622;50.840;4.948;2023-04-16T06:35:23;12.60;;;8.63;;
11135;SDS011;5622;50.840;4.948;2023-04-16T06:37:50;11.57;;;8.77;;
11135;SDS011;5622;50.840;4.948;2023-04-16T06:40:17;13.90;;;8.77;;
11135;SDS011;5622;50.840;4.948;2023-04-16T06:42:44;14.60;;;9.20;;
11135;SDS011;5622;50.840;4.948;2023-04-16T06:45:12;11.90;;;9.00;;
11135;SDS011;5622;50.840;4.948;2023-04-16T06:47:41;12.43;;;8.43;;
11135;SDS011;5622;50.840;4.948;2023-04-16T06:50:08;15.43;;;9.10;;
11135;SDS011;5622;50.840;4.948;2023-04-16T06:52:36;12.50;;;8.93;;
11135;SDS011;5622;50.840;4.948;2023-04-16T06:55:03;16.13;;;9.47;;
11135;SDS011;5622;50.840;4.948;2023-04-16T06:57:32;11.23;;;9.10;;
11135;SDS011;5622;50.840;4.948;2023-04-16T06:59:59;13.80;;;9.53;;
11135;SDS011;5622;50.840;4.948;2023-04-16T07:02:26;11.83;;;8.73;;
11135;SDS011;5622;50.840;4.948;2023-04-16T07:04:55;13.40;;;8.40;;
11135;SDS011;5622;50.840;4.948;2023-04-16T07:07:22;14.53;;;9.30;;
11135;SDS011;5622;50.840;4.948;2023-04-16T07:09:49;14.17;;;9.17;;
11135;SDS011;5622;50.840;4.948;2023-04-16T07:12:16;11.97;;;9.03;;
11135;SDS011;5622;50.840;4.948;2023-04-16T07:14:43;11.63;;;9.17;;
11135;SDS011;5622;50.840;4.948;2023-04-16T07:17:11;15.47;;;9.20;;
11135;SDS011;5622;50.840;4.948;2023-04-16T07:19:38;18.17;;;9.60;;
11135;SDS011;5622;50.840;4.948;2023-04-16T07:22:07;13.43;;;9.60;;
11135;SDS011;5622;50.840;4.948;2023-04-16T07:24:34;13.27;;;8.87;;
11135;SDS011;5622;50.840;4.948;2023-04-16T07:27:01;13.50;;;10.17;;
11135;SDS011;5622;50.840;4.948;2023-04-16T07:29:28;14.30;;;10.17;;
11135;SDS011;5622;50.840;4.948;2023-04-16T07:31:55;14.30;;;10.20;;
11135;SDS011;5622;50.840;4.948;2023-04-16T07:34:23;14.10;;;10.97;;
11135;SDS011;5622;50.840;4.948;2023-04-16T07:36:50;12.77;;;10.03;;
11135;SDS011;5622;50.840;4.948;2023-04-16T07:39:18;15.43;;;10.30;;
11135;SDS011;5622;50.840;4.948;2023-04-16T07:41:46;14.40;;;10.90;;
11135;SDS011;5622;50.840;4.948;2023-04-16T07:44:13;20.67;;;13.70;;
11135;SDS011;5622;50.840;4.948;2023-04-16T07:46:40;18.27;;;12.60;;
11135;SDS011;5622;50.840;4.948;2023-04-16T07:49:07;18.67;;;12.97;;
11135;SDS011;5622;50.840;4.948;2023-04-16T07:51:34;25.70;;;13.63;;
11135;SDS011;5622;50.840;4.948;2023-04-16T07:54:01;20.87;;;13.40;;
11135;SDS011;5622;50.840;4.948;2023-04-16T07:56:30;19.80;;;15.00;;
11135;SDS011;5622;50.840;4.948;2023-04-16T07:58:57;18.20;;;13.43;;
11135;SDS011;5622;50.840;4.948;2023-04-16T08:01:24;18.90;;;12.10;;
11135;SDS011;5622;50.840;4.948;2023-04-16T08:03:52;17.60;;;12.07;;
11135;SDS011;5622;50.840;4.948;2023-04-16T08:06:19;16.83;;;11.37;;
11135;SDS011;5622;50.840;4.948;2023-04-16T08:08:46;14.70;;;11.10;;
11135;SDS011;5622;50.840;4.948;2023-04-16T08:11:13;15.03;;;11.33;;
11135;SDS011;5622;50.840;4.948;2023-04-16T08:13:42;11.60;;;10.10;;
11135;SDS011;5622;50.840;4.948;2023-04-16T08:16:09;11.77;;;10.17;;
11135;SDS011;5622;50.840;4.948;2023-04-16T08:18:36;16.87;;;10.83;;
11135;SDS011;5622;50.840;4.948;2023-04-16T08:21:03;17.77;;;11.33;;
11135;SDS011;5622;50.840;4.948;2023-04-16T08:23:30;12.33;;;9.60;;
11135;SDS011;5622;50.840;4.948;2023-04-16T08:25:57;11.80;;;10.20;;
11135;SDS011;5622;50.840;4.948;2023-04-16T08:28:26;16.20;;;10.13;;
11135;SDS011;5622;50.840;4.948;2023-04-16T08:30:54;13.50;;;10.13;;
11135;SDS011;5622;50.840;4.948;2023-04-16T08:33:21;14.40;;;9.97;;
11135;SDS011;5622;50.840;4.948;2023-04-16T08:35:48;15.70;;;9.93;;
11135;SDS011;5622;50.840;4.948;2023-04-16T08:38:15;13.27;;;10.37;;
11135;SDS011;5622;50.840;4.948;2023-04-16T08:40:42;14.90;;;9.47;;
11135;SDS011;5622;50.840;4.948;2023-04-16T08:43:11;11.47;;;8.50;;
11135;SDS011;5622;50.840;4.948;2023-04-16T08:45:40;14.30;;;9.80;;
11135;SDS011;5622;50.840;4.948;2023-04-16T08:48:09;14.83;;;9.27;;
11135;SDS011;5622;50.840;4.948;2023-04-16T08:50:37;14.80;;;9.37;;
11135;SDS011;5622;50.840;4.948;2023-04-16T08:53:06;12.37;;;9.43;;
11135;SDS011;5622;50.840;4.948;2023-04-16T08:55:37;13.07;;;8.50;;
11135;SDS011;5622;50.840;4.948;2023-04-16T08:58:07;11.40;;;9.53;;
11135;SDS011;5622;50.840;4.948;2023-04-16T09:00:39;14.03;;;10.00;;
11135;SDS011;5622;50.840;4.948;2023-04-16T09:03:06;14.17;;;10.23;;
11135;SDS011;5622;50.840;4.948;2023-04-16T09:05:36;14.87;;;10.37;;
11135;SDS011;5622;50.840;4.948;2023-04-16T09:08:04;16.60;;;10.60;;
11135;SDS011;5622;50.840;4.948;2023-04-16T09:10:31;15.50;;;9.97;;
11135;SDS011;5622;50.840;4.948;2023-04-16T09:12:59;17.13;;;11.37;;
11135;SDS011;5622;50.840;4.948;2023-04-16T09:15:27;15.20;;;11.47;;
11135;SDS011;5622;50.840;4.948;2023-04-16T09:17:54;17.07;;;11.03;;
11135;SDS011;5622;50.840;4.948;2023-04-16T09:20:23;19.30;;;12.90;;
11135;SDS011;5622;50.840;4.948;2023-04-16T09:22:50;17.17;;;12.00;;
11135;SDS011;5622;50.840;4.948;2023-04-16T09:25:18;17.47;;;12.73;;
11135;SDS011;5622;50.840;4.948;2023-04-16T09:27:48;15.67;;;12.07;;
11135;SDS011;5622;50.840;4.948;2023-04-16T09:30:19;17.80;;;12.97;;
11135;SDS011;5622;50.840;4.948;2023-04-16T09:32:48;20.43;;;12.80;;
11135;SDS011;5622;50.840;4.948;2023-04-16T09:35:16;18.10;;;13.20;;
11135;SDS011;5622;50.840;4.948;2023-04-16T09:37:53;18.93;;;12.67;;
11135;SDS011;5622;50.840;4.948;2023-04-16T09:40:25;23.13;;;13.70;;
11135;SDS011;5622;50.840;4.948;2023-04-16T09:42:58;21.83;;;12.40;;
11135;SDS011;5622;50.840;4.948;2023-04-16T09:45:28;17.93;;;12.03;;
11135;SDS011;5622;50.840;4.948;2023-04-16T09:48:01;19.67;;;13.37;;
11135;SDS011;5622;50.840;4.948;2023-04-16T09:50:29;16.40;;;12.20;;
11135;SDS011;5622;50.840;4.948;2023-04-16T09:52:57;21.43;;;12.77;;
11135;SDS011;5622;50.840;4.948;2023-04-16T09:55:28;19.80;;;12.27;;
11135;SDS011;5622;50.840;4.948;2023-04-16T09:57:57;16.57;;;12.07;;
11135;SDS011;5622;50.840;4.948;2023-04-16T10:00:25;18.53;;;11.30;;
11135;SDS011;5622;50.840;4.948;2023-04-16T10:03:01;23.20;;;12.57;;
11135;SDS011;5622;50.840;4.948;2023-04-16T10:05:30;19.60;;;11.47;;
11135;SDS011;5622;50.840;4.948;2023-04-16T10:07:59;20.47;;;11.57;;
11135;SDS011;5622;50.840;4.948;2023-04-16T10:10:27;17.17;;;11.43;;
11135;SDS011;5622;50.840;4.948;2023-04-16T10:12:54;18.97;;;12.23;;
11135;SDS011;5622;50.840;4.948;2023-04-16T10:15:22;21.57;;;12.70;;
11135;SDS011;5622;50.840;4.948;2023-04-16T10:17:49;19.33;;;12.00;;
11135;SDS011;5622;50.840;4.948;2023-04-16T10:20:17;22.37;;;12.73;;
11135;SDS011;5622;50.840;4.948;2023-04-16T10:22:44;23.43;;;15.60;;
11135;SDS011;5622;50.840;4.948;2023-04-16T10:25:13;24.00;;;14.00;;
11135;SDS011;5622;50.840;4.948;2023-04-16T10:27:42;18.97;;;12.20;;
11135;SDS011;5622;50.840;4.948;2023-04-16T10:30:10;16.83;;;11.97;;
11135;SDS011;5622;50.840;4.948;2023-04-16T10:32:38;18.20;;;12.77;;
11135;SDS011;5622;50.840;4.948;2023-04-16T10:35:07;21.90;;;14.97;;
11135;SDS011;5622;50.840;4.948;2023-04-16T10:37:35;26.20;;;16.87;;
11135;SDS011;5622;50.840;4.948;2023-04-16T10:40:15;34.23;;;20.80;;
11135;SDS011;5622;50.840;4.948;2023-04-16T10:42:52;34.53;;;21.10;;
11135;SDS011;5622;50.840;4.948;2023-04-16T10:45:25;34.43;;;15.90;;
11135;SDS011;5622;50.840;4.948;2023-04-16T10:47:54;32.87;;;19.57;;
11135;SDS011;5622;50.840;4.948;2023-04-16T10:50:22;25.77;;;16.43;;
11135;SDS011;5622;50.840;4.948;2023-04-16T10:53:02;29.97;;;18.63;;
11135;SDS011;5622;50.840;4.948;2023-04-16T10:55:56;24.97;;;16.40;;
11135;SDS011;5622;50.840;4.948;2023-04-16T10:58:27;22.67;;;13.63;;
11135;SDS011;5622;50.840;4.948;2023-04-16T11:00:54;26.20;;;15.27;;
11135;SDS011;5622;50.840;4.948;2023-04-16T11:03:25;18.90;;;13.03;;
11135;SDS011;5622;50.840;4.948;2023-04-16T11:06:08;19.70;;;12.70;;
11135;SDS011;5622;50.840;4.948;2023-04-16T11:08:42;22.27;;;13.23;;
11135;SDS011;5622;50.840;4.948;2023-04-16T11:11:13;20.43;;;13.37;;
11135;SDS011;5622;50.840;4.948;2023-04-16T11:13:41;21.37;;;13.53;;
11135;SDS011;5622;50.840;4.948;2023-04-16T11:16:09;22.73;;;14.13;;
11135;SDS011;5622;50.840;4.948;2023-04-16T11:18:37;28.53;;;16.90;;
11135;SDS011;5622;50.840;4.948;2023-04-16T11:21:06;20.07;;;15.47;;
11135;SDS011;5622;50.840;4.948;2023-04-16T11:23:44;18.33;;;11.73;;
11135;SDS011;5622;50.840;4.948;2023-04-16T11:26:25;17.70;;;12.60;;
11135;SDS011;5622;50.840;4.948;2023-04-16T11:28:54;20.73;;;12.63;;
11135;SDS011;5622;50.840;4.948;2023-04-16T11:31:23;21.23;;;13.50;;
11135;SDS011;5622;50.840;4.948;2023-04-16T11:33:51;20.43;;;13.13;;
11135;SDS011;5622;50.840;4.948;2023-04-16T11:36:18;17.73;;;13.53;;
11135;SDS011;5622;50.840;4.948;2023-04-16T11:38:46;21.97;;;13.50;;
11135;SDS011;5622;50.840;4.948;2023-04-16T11:41:18;20.83;;;13.33;;
11135;SDS011;5622;50.840;4.948;2023-04-16T11:43:48;21.63;;;13.33;;
11135;SDS011;5622;50.840;4.948;2023-04-16T11:46:15;23.23;;;13.77;;
11135;SDS011;5622;50.840;4.948;2023-04-16T11:48:45;25.13;;;12.67;;
11135;SDS011;5622;50.840;4.948;2023-04-16T11:51:16;17.83;;;11.63;;
11135;SDS011;5622;50.840;4.948;2023-04-16T11:53:47;17.83;;;12.20;;
11135;SDS011;5622;50.840;4.948;2023-04-16T11:56:24;20.30;;;12.80;;
11135;SDS011;5622;50.840;4.948;2023-04-16T11:59:06;24.07;;;13.83;;
11135;SDS011;5622;50.840;4.948;2023-04-16T12:01:34;18.70;;;13.63;;
11135;SDS011;5622;50.840;4.948;2023-04-16T12:04:03;23.37;;;13.43;;
11135;SDS011;5622;50.840;4.948;2023-04-16T12:06:30;18.97;;;12.83;;
11135;SDS011;5622;50.840;4.948;2023-04-16T12:08:57;20.53;;;13.17;;
11135;SDS011;5622;50.840;4.948;2023-04-16T12:11:38;25.43;;;13.83;;
11135;SDS011;5622;50.840;4.948;2023-04-16T12:14:07;21.03;;;13.37;;
11135;SDS011;5622;50.840;4.948;2023-04-16T12:16:35;19.20;;;13.87;;
11135;SDS011;5622;50.840;4.948;2023-04-16T12:19:03;22.53;;;14.37;;
11135;SDS011;5622;50.840;4.948;2023-04-16T12:21:40;22.57;;;13.63;;
11135;SDS011;5622;50.840;4.948;2023-04-16T12:24:09;22.47;;;14.47;;
11135;SDS011;5622;50.840;4.948;2023-04-16T12:26:41;22.30;;;14.33;;
11135;SDS011;5622;50.840;4.948;2023-04-16T12:29:18;19.80;;;13.47;;
11135;SDS011;5622;50.840;4.948;2023-04-16T12:31:47;22.97;;;14.77;;
11135;SDS011;5622;50.840;4.948;2023-04-16T12:34:16;24.97;;;14.37;;
11135;SDS011;5622;50.840;4.948;2023-04-16T12:36:44;22.23;;;14.90;;
11135;SDS011;5622;50.840;4.948;2023-04-16T12:39:12;19.60;;;13.87;;
11135;SDS011;5622;50.840;4.948;2023-04-16T12:41:41;17.77;;;12.73;;
11135;SDS011;5622;50.840;4.948;2023-04-16T12:44:09;19.63;;;14.33;;
11135;SDS011;5622;50.840;4.948;2023-04-16T12:46:40;24.73;;;14.53;;
11135;SDS011;5622;50.840;4.948;2023-04-16T12:49:07;20.03;;;13.57;;
11135;SDS011;5622;50.840;4.948;2023-04-16T12:51:37;20.87;;;13.30;;
11135;SDS011;5622;50.840;4.948;2023-04-16T12:54:05;22.17;;;13.33;;
11135;SDS011;5622;50.840;4.948;2023-04-16T12:56:33;21.07;;;13.73;;
11135;SDS011;5622;50.840;4.948;2023-04-16T12:59:01;21.37;;;14.73;;
11135;SDS011;5622;50.840;4.948;2023-04-16T13:01:28;19.83;;;13.83;;
11135;SDS011;5622;50.840;4.948;2023-04-16T13:03:57;20.93;;;14.47;;
11135;SDS011;5622;50.840;4.948;2023-04-16T13:06:24;20.03;;;13.93;;
11135;SDS011;5622;50.840;4.948;2023-04-16T13:08:52;25.80;;;14.77;;
11135;SDS011;5622;50.840;4.948;2023-04-16T13:11:19;28.30;;;15.87;;
11135;SDS011;5622;50.840;4.948;2023-04-16T13:13:46;21.37;;;14.87;;
11135;SDS011;5622;50.840;4.948;2023-04-16T13:16:13;23.93;;;16.27;;
11135;SDS011;5622;50.840;4.948;2023-04-16T13:18:40;28.03;;;17.23;;
11135;SDS011;5622;50.840;4.948;2023-04-16T13:21:09;28.13;;;17.23;;
11135;SDS011;5622;50.840;4.948;2023-04-16T13:23:37;30.30;;;21.10;;
11135;SDS011;5622;50.840;4.948;2023-04-16T13:26:04;23.20;;;18.13;;
11135;SDS011;5622;50.840;4.948;2023-04-16T13:28:31;22.60;;;17.07;;
11135;SDS011;5622;50.840;4.948;2023-04-16T13:30:58;23.87;;;15.30;;
11135;SDS011;5622;50.840;4.948;2023-04-16T13:33:26;23.07;;;14.77;;
11135;SDS011;5622;50.840;4.948;2023-04-16T13:35:53;21.33;;;15.00;;
11135;SDS011;5622;50.840;4.948;2023-04-16T13:38:21;21.80;;;14.83;;
11135;SDS011;5622;50.840;4.948;2023-04-16T13:40:48;20.23;;;15.47;;
11135;SDS011;5622;50.840;4.948;2023-04-16T13:43:15;24.07;;;16.00;;
11135;SDS011;5622;50.840;4.948;2023-04-16T13:45:43;24.80;;;15.77;;
11135;SDS011;5622;50.840;4.948;2023-04-16T13:48:10;23.20;;;15.93;;
11135;SDS011;5622;50.840;4.948;2023-04-16T13:50:37;25.83;;;15.93;;
11135;SDS011;5622;50.840;4.948;2023-04-16T13:53:04;24.17;;;15.33;;
11135;SDS011;5622;50.840;4.948;2023-04-16T13:55:33;22.50;;;15.90;;
11135;SDS011;5622;50.840;4.948;2023-04-16T13:58:01;26.10;;;16.27;;
11135;SDS011;5622;50.840;4.948;2023-04-16T14:00:31;27.20;;;16.63;;
11135;SDS011;5622;50.840;4.948;2023-04-16T14:02:58;20.47;;;15.00;;
11135;SDS011;5622;50.840;4.948;2023-04-16T14:05:25;24.93;;;15.37;;
11135;SDS011;5622;50.840;4.948;2023-04-16T14:07:52;23.07;;;15.10;;
11135;SDS011;5622;50.840;4.948;2023-04-16T14:10:20;25.00;;;15.77;;
11135;SDS011;5622;50.840;4.948;2023-04-16T14:12:48;26.77;;;15.27;;
11135;SDS011;5622;50.840;4.948;2023-04-16T14:15:16;25.40;;;16.23;;
11135;SDS011;5622;50.840;4.948;2023-04-16T14:17:43;23.40;;;16.87;;
11135;SDS011;5622;50.840;4.948;2023-04-16T14:20:11;30.70;;;14.97;;
11135;SDS011;5622;50.840;4.948;2023-04-16T14:22:39;22.63;;;16.47;;
11135;SDS011;5622;50.840;4.948;2023-04-16T14:25:07;28.03;;;16.13;;
11135;SDS011;5622;50.840;4.948;2023-04-16T14:27:35;25.33;;;15.77;;
11135;SDS011;5622;50.840;4.948;2023-04-16T14:30:04;20.80;;;15.27;;
11135;SDS011;5622;50.840;4.948;2023-04-16T14:32:32;23.63;;;16.10;;
11135;SDS011;5622;50.840;4.948;2023-04-16T14:35:00;25.70;;;16.10;;
11135;SDS011;5622;50.840;4.948;2023-04-16T14:37:27;25.47;;;15.83;;
11135;SDS011;5622;50.840;4.948;2023-04-16T14:39:54;21.57;;;15.10;;
11135;SDS011;5622;50.840;4.948;2023-04-16T14:42:22;26.57;;;16.10;;
11135;SDS011;5622;50.840;4.948;2023-04-16T14:44:52;25.20;;;16.20;;
11135;SDS011;5622;50.840;4.948;2023-04-16T14:47:20;22.50;;;15.93;;
11135;SDS011;5622;50.840;4.948;2023-04-16T14:49:47;25.10;;;17.13;;
11135;SDS011;5622;50.840;4.948;2023-04-16T14:52:15;24.00;;;16.90;;